Time;durP1;ratioP1;P1;durP2;ratioP2;P2;SDS_P1;SDS_P2;PMS_P1;PMS_P2;Temp;Humidity;BMP_temperature;BMP_pressure;BME280_temperature;BME280_humidity;BME280_pressure;Samples;Min_cycle;Max_cycle;Signal;HPM_P1;HPM_P2
2021/09/16 00:01:48;;;;;;;2.53;0.20;;;14.20;99.90;;;;;;6114683;23;20032;-81
2021/09/16 00:04:16;;;;;;;2.70;0.30;;;14.20;99.90;;;;;;6114786;23;20078;-81
2021/09/16 00:06:41;;;;;;;2.20;0.20;;;14.10;99.90;;;;;;6114639;23;20458;-81
2021/09/16 00:09:07;;;;;;;1.30;0.20;;;14.10;99.90;;;;;;6114707;23;20010;-81
2021/09/16 00:11:32;;;;;;;2.50;0.20;;;14.00;99.90;;;;;;6114946;23;20014;-81
2021/09/16 00:13:58;;;;;;;2.47;0.20;;;14.00;99.90;;;;;;6114319;23;20052;-81
2021/09/16 00:16:24;;;;;;;1.02;0.20;;;14.00;99.90;;;;;;6139202;23;20009;-81
2021/09/16 00:18:49;;;;;;;2.90;0.20;;;13.90;99.90;;;;;;6114885;23;20042;-81
2021/09/16 00:21:15;;;;;;;3.67;0.20;;;13.90;99.90;;;;;;6139234;23;20002;-81
2021/09/16 00:23:41;;;;;;;1.83;0.20;;;13.90;99.90;;;;;;6139162;23;20089;-81
2021/09/16 00:26:06;;;;;;;2.17;0.25;;;13.80;99.90;;;;;;6114401;23;20077;-81
2021/09/16 00:28:32;;;;;;;3.13;0.30;;;13.80;99.90;;;;;;6114325;23;20045;-80
2021/09/16 00:30:57;;;;;;;3.45;0.20;;;13.80;99.90;;;;;;6114652;23;20038;-82
2021/09/16 00:33:23;;;;;;;3.10;0.20;;;13.80;99.90;;;;;;6139164;23;20006;-80
2021/09/16 00:35:49;;;;;;;4.97;0.30;;;13.70;99.90;;;;;;6114742;23;20070;-81
2021/09/16 00:38:14;;;;;;;2.53;0.20;;;13.70;99.90;;;;;;6139137;23;20031;-81
2021/09/16 00:40:40;;;;;;;3.20;0.30;;;13.70;99.90;;;;;;6138893;23;19998;-81
2021/09/16 00:43:05;;;;;;;2.38;0.30;;;13.70;99.90;;;;;;6140702;23;20401;-81
2021/09/16 00:45:31;;;;;;;2.65;0.20;;;13.60;99.90;;;;;;6107633;23;20014;-80
2021/09/16 00:47:57;;;;;;;3.65;0.40;;;13.60;99.90;;;;;;6100544;23;20093;-81
2021/09/16 00:50:24;;;;;;;3.00;0.32;;;13.60;99.90;;;;;;6092157;23;20030;-81
2021/09/16 00:52:50;;;;;;;1.85;0.30;;;13.50;99.90;;;;;;6109939;23;20099;-81
2021/09/16 00:55:16;;;;;;;2.90;0.40;;;13.50;99.90;;;;;;6085561;23;20006;-82
2021/09/16 00:57:48;;;;;;;4.90;0.60;;;13.50;99.90;;;;;;6109355;23;20010;-81
2021/09/16 01:00:14;;;;;;;4.60;0.38;;;13.50;99.90;;;;;;6109558;23;20026;-81
2021/09/16 01:02:40;;;;;;;4.10;0.30;;;13.50;99.90;;;;;;6109109;23;20018;-81
2021/09/16 01:05:06;;;;;;;2.47;0.30;;;13.50;99.90;;;;;;6085510;23;20017;-81
2021/09/16 01:07:31;;;;;;;4.32;0.30;;;13.40;99.90;;;;;;6085358;23;20037;-81
2021/09/16 01:10:02;;;;;;;3.65;0.30;;;13.40;99.90;;;;;;6109386;23;20006;-80
2021/09/16 01:12:27;;;;;;;2.78;0.40;;;13.50;99.90;;;;;;6111073;23;20006;-81
2021/09/16 01:14:53;;;;;;;6.97;0.40;;;13.60;99.90;;;;;;6109187;23;20018;-81
2021/09/16 01:17:19;;;;;;;3.45;0.47;;;13.60;99.90;;;;;;6108929;23;20057;-81
2021/09/16 01:19:44;;;;;;;4.55;0.60;;;13.50;99.90;;;;;;6109428;23;20305;-81
2021/09/16 01:22:17;;;;;;;5.65;0.50;;;13.50;99.90;;;;;;6109274;23;20054;-81
2021/09/16 01:24:43;;;;;;;2.38;0.40;;;13.50;99.90;;;;;;6109274;23;20018;-81
2021/09/16 01:27:09;;;;;;;2.80;0.47;;;13.50;99.90;;;;;;6084693;23;20089;-81
2021/09/16 01:29:34;;;;;;;2.72;0.50;;;13.50;99.90;;;;;;6109389;23;20021;-81
2021/09/16 01:32:03;;;;;;;3.55;0.50;;;13.50;99.90;;;;;;6109428;23;20070;-80
2021/09/16 01:34:29;;;;;;;4.15;0.57;;;13.60;99.90;;;;;;6109249;23;20002;-80
2021/09/16 01:36:55;;;;;;;4.07;0.60;;;13.50;99.90;;;;;;6109077;23;20057;-80
2021/09/16 01:39:21;;;;;;;4.15;0.40;;;13.60;99.90;;;;;;6109970;23;20006;-80
2021/09/16 01:41:46;;;;;;;4.15;0.43;;;13.60;99.90;;;;;;6087084;23;20010;-80
2021/09/16 01:44:13;;;;;;;4.93;0.40;;;13.50;99.90;;;;;;6111057;23;20200;-80
2021/09/16 01:46:39;;;;;;;3.90;0.40;;;13.50;99.90;;;;;;6141156;23;20010;-80
2021/09/16 01:49:05;;;;;;;3.70;0.50;;;13.50;99.90;;;;;;6115948;23;20060;-81
2021/09/16 01:51:32;;;;;;;5.18;0.40;;;13.40;99.90;;;;;;6140438;23;20305;-81
2021/09/16 01:53:58;;;;;;;4.45;0.50;;;13.40;99.90;;;;;;6116067;23;20014;-81
2021/09/16 01:56:25;;;;;;;3.80;0.52;;;13.40;99.90;;;;;;6141666;23;20002;-81
2021/09/16 01:58:51;;;;;;;4.50;0.70;;;13.40;99.90;;;;;;6115975;23;20017;-80
2021/09/16 02:01:17;;;;;;;3.75;0.80;;;13.40;99.90;;;;;;6115813;23;20010;-81
2021/09/16 02:03:42;;;;;;;7.07;0.80;;;13.40;99.90;;;;;;6115480;23;20028;-80
2021/09/16 02:06:08;;;;;;;4.68;0.60;;;13.40;99.90;;;;;;6115639;23;20006;-80
2021/09/16 02:08:34;;;;;;;2.88;0.45;;;13.50;99.90;;;;;;6115911;23;20061;-81
2021/09/16 02:10:59;;;;;;;2.63;0.47;;;13.40;99.90;;;;;;6140389;23;20030;-81
2021/09/16 02:13:26;;;;;;;4.00;0.60;;;13.40;99.90;;;;;;6115681;23;20089;-81
2021/09/16 02:15:52;;;;;;;2.38;0.30;;;13.40;99.90;;;;;;6115674;23;20033;-81
2021/09/16 02:18:18;;;;;;;1.30;0.22;;;13.40;99.90;;;;;;6115328;23;20092;-80
2021/09/16 02:20:43;;;;;;;4.53;0.40;;;13.40;99.90;;;;;;6139745;23;20010;-81
2021/09/16 02:23:09;;;;;;;4.18;0.40;;;13.40;99.90;;;;;;6115443;23;20017;-80
2021/09/16 02:25:34;;;;;;;3.70;0.30;;;13.40;99.90;;;;;;6115762;23;20013;-81
2021/09/16 02:28:00;;;;;;;5.38;0.70;;;13.30;99.90;;;;;;6139848;23;20072;-81
2021/09/16 02:30:26;;;;;;;2.47;0.30;;;13.30;99.90;;;;;;6115563;23;20089;-82
2021/09/16 02:32:51;;;;;;;2.88;0.40;;;13.40;99.90;;;;;;6115634;23;20010;-81
2021/09/16 02:35:17;;;;;;;3.22;0.40;;;13.30;99.90;;;;;;6139668;23;20478;-80
2021/09/16 02:37:42;;;;;;;3.55;0.35;;;13.30;99.90;;;;;;6115638;23;20029;-81
2021/09/16 02:40:10;;;;;;;2.92;0.30;;;13.30;99.90;;;;;;6115593;23;20065;-81
2021/09/16 02:42:37;;;;;;;2.40;0.38;;;13.20;99.90;;;;;;6139995;23;20061;-81
2021/09/16 02:45:04;;;;;;;4.30;0.40;;;13.20;99.90;;;;;;6115026;23;20017;-81
2021/09/16 02:47:30;;;;;;;3.33;0.80;;;13.20;99.90;;;;;;6139486;23;20063;-81
2021/09/16 02:49:55;;;;;;;6.05;0.90;;;13.20;99.90;;;;;;6141345;23;20002;-81
2021/09/16 02:52:21;;;;;;;7.78;0.70;;;13.20;99.90;;;;;;6115028;23;20006;-82
2021/09/16 02:54:47;;;;;;;4.82;0.50;;;13.20;99.90;;;;;;6115591;23;20012;-81
2021/09/16 02:57:12;;;;;;;3.20;0.68;;;13.20;99.90;;;;;;6115097;23;20010;-81
2021/09/16 02:59:38;;;;;;;5.45;1.13;;;13.20;99.90;;;;;;6115322;23;20006;-81
2021/09/16 03:02:04;;;;;;;5.28;0.63;;;13.20;99.90;;;;;;6141007;23;20038;-81
2021/09/16 03:04:29;;;;;;;2.92;0.52;;;13.20;99.90;;;;;;6139921;23;20029;-80
2021/09/16 03:06:55;;;;;;;3.80;0.50;;;13.30;99.90;;;;;;6115203;23;20010;-81
2021/09/16 03:09:22;;;;;;;3.60;0.50;;;13.30;99.90;;;;;;6115453;23;20427;-80
2021/09/16 03:11:47;;;;;;;3.58;0.50;;;13.30;99.90;;;;;;6114861;23;20457;-81
2021/09/16 03:14:13;;;;;;;3.30;0.63;;;13.40;99.90;;;;;;6114900;23;20014;-82
2021/09/16 03:16:39;;;;;;;5.75;0.85;;;13.40;99.90;;;;;;6114936;23;20018;-81
2021/09/16 03:19:04;;;;;;;2.90;0.63;;;13.50;99.90;;;;;;6115004;23;19998;-80
2021/09/16 03:21:30;;;;;;;3.55;0.60;;;13.60;99.90;;;;;;6114975;23;20034;-81
2021/09/16 03:23:55;;;;;;;6.88;0.60;;;13.60;99.90;;;;;;6115140;23;20018;-81
2021/09/16 03:26:21;;;;;;;2.92;0.50;;;13.70;99.90;;;;;;6114832;23;20037;-81
2021/09/16 03:28:47;;;;;;;3.20;0.50;;;13.60;99.90;;;;;;6115292;23;20020;-81
2021/09/16 03:31:12;;;;;;;4.00;0.50;;;13.70;99.90;;;;;;6115070;23;20025;-82
2021/09/16 03:33:38;;;;;;;2.88;0.60;;;13.60;99.90;;;;;;6114947;23;20313;-81
2021/09/16 03:36:04;;;;;;;3.92;0.55;;;13.60;99.90;;;;;;6114730;23;20515;-81
2021/09/16 03:38:30;;;;;;;8.25;0.60;;;13.60;99.90;;;;;;6114928;23;20006;-81
2021/09/16 03:40:56;;;;;;;1.42;0.40;;;13.60;99.90;;;;;;6114833;23;20061;-80
2021/09/16 03:43:22;;;;;;;3.22;0.55;;;13.60;99.90;;;;;;6114459;23;20014;-81
2021/09/16 03:45:47;;;;;;;3.80;0.68;;;13.70;99.90;;;;;;6114277;23;20038;-81
2021/09/16 03:48:13;;;;;;;4.18;0.52;;;13.70;99.90;;;;;;6139167;23;20451;-81
2021/09/16 03:50:39;;;;;;;3.05;0.60;;;13.70;99.90;;;;;;6139195;23;20016;-81
2021/09/16 03:53:04;;;;;;;3.50;0.55;;;13.70;99.90;;;;;;6139251;23;20065;-80
2021/09/16 03:55:30;;;;;;;4.05;0.50;;;13.80;99.90;;;;;;6139120;23;20061;-81
2021/09/16 03:57:56;;;;;;;4.10;0.43;;;13.80;99.90;;;;;;6138878;23;20006;-80
2021/09/16 04:00:21;;;;;;;8.10;0.50;;;13.80;99.90;;;;;;6139459;23;20009;-83
2021/09/16 04:02:47;;;;;;;2.10;0.40;;;13.80;99.90;;;;;;6140163;23;20024;-81
2021/09/16 04:05:13;;;;;;;4.68;0.40;;;13.80;99.90;;;;;;6139280;23;20423;-82
2021/09/16 04:07:39;;;;;;;3.72;0.40;;;13.70;99.90;;;;;;6138952;23;20014;-82
2021/09/16 04:10:07;;;;;;;5.45;0.32;;;13.70;99.90;;;;;;6139193;23;20025;-82
2021/09/16 04:12:33;;;;;;;4.88;0.40;;;13.60;99.90;;;;;;6114806;23;20026;-82
2021/09/16 04:14:59;;;;;;;4.03;0.50;;;13.60;99.90;;;;;;6114861;23;20005;-81
2021/09/16 04:17:24;;;;;;;1.75;0.50;;;13.60;99.90;;;;;;6114221;23;20014;-81
2021/09/16 04:19:50;;;;;;;3.65;0.50;;;13.60;99.90;;;;;;6138029;23;20010;-82
2021/09/16 04:22:16;;;;;;;2.92;0.43;;;13.60;99.90;;;;;;6138465;23;20026;-82
2021/09/16 04:24:41;;;;;;;3.47;0.70;;;13.60;99.90;;;;;;6139389;23;20016;-82
2021/09/16 04:27:09;;;;;;;2.85;0.50;;;13.60;99.90;;;;;;6114364;23;20009;-81
2021/09/16 04:29:35;;;;;;;3.22;0.63;;;13.60;99.90;;;;;;6114400;23;20424;-81
2021/09/16 04:32:00;;;;;;;3.35;0.60;;;13.60;99.90;;;;;;6140717;23;20029;-82
2021/09/16 04:34:26;;;;;;;2.33;0.60;;;13.60;99.90;;;;;;6138533;23;20029;-82
2021/09/16 04:36:52;;;;;;;4.40;0.68;;;13.60;99.90;;;;;;6138892;23;20022;-82
2021/09/16 04:39:17;;;;;;;3.80;0.60;;;13.60;99.90;;;;;;6138974;23;20017;-82
2021/09/16 04:41:43;;;;;;;3.40;0.60;;;13.60;99.90;;;;;;6138857;23;20088;-82
2021/09/16 04:44:08;;;;;;;5.85;0.70;;;13.70;99.90;;;;;;6138297;23;20029;-82
2021/09/16 04:46:34;;;;;;;6.22;0.60;;;13.70;99.90;;;;;;6138557;23;20017;-82
2021/09/16 04:48:59;;;;;;;3.88;0.80;;;13.70;99.90;;;;;;6140524;23;20010;-82
2021/09/16 04:51:25;;;;;;;6.57;0.90;;;13.70;99.90;;;;;;6140300;23;20026;-82
2021/09/16 04:53:51;;;;;;;4.10;0.60;;;13.80;99.90;;;;;;6114122;23;20014;-82
2021/09/16 04:56:16;;;;;;;5.35;0.50;;;13.80;99.90;;;;;;6114141;23;20006;-83
2021/09/16 04:58:42;;;;;;;3.92;0.70;;;13.80;99.90;;;;;;6113987;23;20010;-82
2021/09/16 05:01:08;;;;;;;5.93;1.15;;;13.80;99.90;;;;;;6114528;23;20379;-82
2021/09/16 05:03:36;;;;;;;5.50;0.77;;;13.80;99.90;;;;;;6114069;23;20029;-81
2021/09/16 05:06:02;;;;;;;7.80;1.38;;;13.80;99.90;;;;;;6140206;23;20030;-81
2021/09/16 05:08:28;;;;;;;8.43;1.00;;;13.80;99.90;;;;;;6089999;23;20020;-81
2021/09/16 05:10:53;;;;;;;7.72;0.60;;;13.80;99.90;;;;;;6114422;23;20006;-81
2021/09/16 05:13:19;;;;;;;5.90;0.82;;;13.80;99.90;;;;;;6114206;23;20037;-81
2021/09/16 05:15:44;;;;;;;4.60;1.08;;;13.80;99.90;;;;;;6113827;23;20010;-81
2021/09/16 05:18:10;;;;;;;3.78;0.60;;;13.90;99.90;;;;;;6114071;23;20010;-81
2021/09/16 05:20:36;;;;;;;2.50;0.80;;;13.80;99.90;;;;;;6065689;23;20022;-83
2021/09/16 05:23:02;;;;;;;4.70;0.88;;;13.90;99.90;;;;;;6113367;23;20073;-81
2021/09/16 05:25:27;;;;;;;3.38;0.60;;;13.90;99.90;;;;;;6114274;23;20078;-82
2021/09/16 05:27:53;;;;;;;2.40;0.50;;;13.90;99.90;;;;;;6138301;23;20010;-81
2021/09/16 05:30:18;;;;;;;2.30;0.43;;;13.90;99.90;;;;;;6138397;23;20006;-82
2021/09/16 05:32:44;;;;;;;1.77;0.50;;;13.90;99.90;;;;;;6114466;23;20037;-82
2021/09/16 05:35:10;;;;;;;3.15;0.52;;;14.00;99.90;;;;;;6114303;23;20010;-83
2021/09/16 05:37:36;;;;;;;5.22;0.70;;;14.00;99.90;;;;;;6113956;23;20010;-82
2021/09/16 05:40:03;;;;;;;1.30;0.40;;;14.00;99.90;;;;;;6089543;23;20006;-82
2021/09/16 05:42:29;;;;;;;3.10;0.80;;;14.00;99.90;;;;;;6137859;23;20006;-83
2021/09/16 05:44:55;;;;;;;2.33;0.55;;;14.00;99.90;;;;;;6105401;23;20071;-83
2021/09/16 05:47:20;;;;;;;4.70;0.80;;;14.10;99.90;;;;;;6085942;23;20014;-82
2021/09/16 05:49:46;;;;;;;2.80;0.85;;;14.00;99.90;;;;;;6108424;23;20013;-82
2021/09/16 05:52:11;;;;;;;3.90;0.68;;;14.00;99.90;;;;;;6084538;23;20035;-82
2021/09/16 05:54:37;;;;;;;3.95;0.70;;;14.00;99.90;;;;;;6084456;23;20006;-82
2021/09/16 05:57:03;;;;;;;3.17;0.50;;;14.10;99.90;;;;;;6083852;23;20014;-82
2021/09/16 05:59:29;;;;;;;4.65;0.80;;;14.10;99.90;;;;;;6084160;23;20013;-82
2021/09/16 06:01:55;;;;;;;4.13;0.50;;;14.20;99.90;;;;;;6083802;23;20017;-82
2021/09/16 06:04:20;;;;;;;3.70;0.60;;;14.20;99.90;;;;;;6084303;23;20026;-82
2021/09/16 06:06:46;;;;;;;2.70;0.55;;;14.20;99.90;;;;;;6084292;23;20273;-82
2021/09/16 06:09:11;;;;;;;3.38;0.85;;;14.30;99.90;;;;;;6084183;23;20015;-82
2021/09/16 06:11:37;;;;;;;3.17;0.70;;;14.20;99.90;;;;;;6108362;23;20007;-82
2021/09/16 06:14:03;;;;;;;5.97;0.60;;;14.30;99.90;;;;;;6083608;23;20010;-82
2021/09/16 06:16:28;;;;;;;2.17;0.45;;;14.30;99.90;;;;;;6084314;23;20066;-83
2021/09/16 06:18:54;;;;;;;2.03;1.05;;;14.30;99.90;;;;;;6084259;23;20014;-82
2021/09/16 06:21:20;;;;;;;2.33;0.77;;;14.30;99.90;;;;;;6084086;23;20070;-82
2021/09/16 06:23:45;;;;;;;2.25;0.35;;;14.40;99.90;;;;;;6083981;23;20018;-82
2021/09/16 06:26:11;;;;;;;3.58;0.45;;;14.40;99.90;;;;;;6084137;23;20010;-82
2021/09/16 06:28:36;;;;;;;3.97;0.40;;;14.40;99.90;;;;;;6111502;23;20014;-81
2021/09/16 06:31:02;;;;;;;3.97;0.40;;;14.50;99.90;;;;;;6085842;23;20010;-82
2021/09/16 06:33:28;;;;;;;5.43;0.40;;;14.50;99.90;;;;;;6109543;23;20006;-81
2021/09/16 06:35:54;;;;;;;3.58;0.50;;;14.50;99.90;;;;;;6085777;23;20002;-82
2021/09/16 06:38:20;;;;;;;3.15;0.40;;;14.50;99.90;;;;;;6085539;23;20010;-82
2021/09/16 06:40:46;;;;;;;2.70;0.40;;;14.50;99.90;;;;;;6085772;23;20057;-82
2021/09/16 06:43:11;;;;;;;4.47;0.30;;;14.60;99.90;;;;;;6109751;23;20050;-82
2021/09/16 06:45:37;;;;;;;3.28;0.30;;;14.60;99.90;;;;;;6084560;23;20041;-81
2021/09/16 06:48:02;;;;;;;3.22;0.30;;;14.70;99.90;;;;;;6085399;23;20021;-81
2021/09/16 06:50:28;;;;;;;2.17;0.30;;;14.80;99.90;;;;;;6109508;23;20533;-81
2021/09/16 06:52:54;;;;;;;2.13;0.30;;;14.90;99.90;;;;;;6097750;23;20026;-81
2021/09/16 06:55:20;;;;;;;3.47;0.40;;;15.10;99.90;;;;;;6085328;23;20033;-80
2021/09/16 06:57:45;;;;;;;4.28;0.35;;;15.20;99.90;;;;;;6109566;23;20448;-80
2021/09/16 07:00:11;;;;;;;3.47;0.30;;;15.00;99.90;;;;;;6085279;23;20017;-81
2021/09/16 07:02:37;;;;;;;3.70;0.40;;;15.10;99.90;;;;;;6085261;23;20325;-82
2021/09/16 07:05:04;;;;;;;1.85;0.40;;;15.10;99.90;;;;;;6085178;23;20041;-81
2021/09/16 07:07:30;;;;;;;5.13;0.40;;;15.10;99.90;;;;;;6061381;23;20010;-81
2021/09/16 07:09:56;;;;;;;3.85;0.30;;;15.00;99.90;;;;;;6085474;23;20033;-80
2021/09/16 07:12:22;;;;;;;3.42;0.30;;;15.10;99.90;;;;;;6085355;23;20010;-81
2021/09/16 07:14:48;;;;;;;1.48;0.22;;;15.20;99.90;;;;;;6084670;23;20013;-81
2021/09/16 07:17:13;;;;;;;4.35;0.40;;;15.30;99.90;;;;;;6085176;23;20016;-81
2021/09/16 07:19:39;;;;;;;2.15;0.40;;;15.40;99.90;;;;;;6085258;23;20006;-81
2021/09/16 07:22:05;;;;;;;3.55;0.38;;;15.60;99.90;;;;;;6085035;23;20034;-81
2021/09/16 07:24:30;;;;;;;2.78;0.50;;;15.60;99.90;;;;;;6109314;23;20006;-81
2021/09/16 07:26:56;;;;;;;5.05;0.70;;;15.60;99.90;;;;;;6109051;23;20009;-82
2021/09/16 07:29:23;;;;;;;3.70;0.70;;;15.60;99.90;;;;;;6085269;23;20010;-81
2021/09/16 07:31:50;;;;;;;2.85;0.50;;;15.80;99.90;;;;;;6085102;23;20028;-81
2021/09/16 07:34:18;;;;;;;2.47;0.70;;;15.80;99.90;;;;;;6109055;23;20006;-81
2021/09/16 07:36:44;;;;;;;2.78;0.70;;;15.90;99.90;;;;;;6084975;23;20089;-82
2021/09/16 07:39:15;;;;;;;3.60;0.70;;;15.80;99.90;;;;;;6108988;23;20017;-81
2021/09/16 07:41:41;;;;;;;4.82;0.63;;;15.90;99.90;;;;;;6108503;23;20033;-80
2021/09/16 07:44:07;;;;;;;2.55;0.70;;;15.80;99.90;;;;;;6084379;23;20011;-81
2021/09/16 07:46:33;;;;;;;4.75;0.63;;;15.90;99.90;;;;;;6084550;23;20052;-82
2021/09/16 07:48:59;;;;;;;3.22;0.43;;;16.00;99.90;;;;;;6084922;23;20014;-82
2021/09/16 07:51:25;;;;;;;2.90;0.60;;;16.00;99.90;;;;;;6084764;23;20029;-82
2021/09/16 07:53:51;;;;;;;1.83;0.70;;;16.00;99.90;;;;;;6110733;23;20006;-82
2021/09/16 07:56:19;;;;;;;6.43;0.60;;;16.10;99.90;;;;;;6108540;23;20077;-82
2021/09/16 07:58:45;;;;;;;4.05;0.80;;;16.20;99.90;;;;;;6084809;23;20014;-81
2021/09/16 08:01:11;;;;;;;1.90;0.50;;;16.20;99.90;;;;;;6084652;23;20420;-82
2021/09/16 08:03:37;;;;;;;3.72;0.60;;;16.20;99.90;;;;;;6084736;23;20025;-82
2021/09/16 08:06:03;;;;;;;3.55;0.60;;;16.30;99.90;;;;;;6108579;23;20033;-82
2021/09/16 08:08:29;;;;;;;2.55;0.60;;;16.60;99.90;;;;;;6084810;23;20109;-82
2021/09/16 08:10:55;;;;;;;4.28;0.60;;;16.40;99.90;;;;;;6084507;23;20329;-82
2021/09/16 08:13:21;;;;;;;1.42;0.50;;;16.60;99.90;;;;;;6085040;23;20021;-82
2021/09/16 08:15:47;;;;;;;4.65;0.60;;;16.70;99.90;;;;;;6108350;23;20014;-82
2021/09/16 08:18:13;;;;;;;2.85;0.50;;;16.70;99.90;;;;;;6084630;23;20067;-82
2021/09/16 08:20:45;;;;;;;3.90;1.02;;;16.70;99.90;;;;;;6084806;23;20006;-82
2021/09/16 08:23:11;;;;;;;5.30;0.60;;;16.60;99.90;;;;;;6084500;23;20025;-82
2021/09/16 08:25:36;;;;;;;1.60;0.63;;;16.80;99.90;;;;;;6084400;23;20017;-81
2021/09/16 08:28:02;;;;;;;1.38;0.35;;;17.00;99.90;;;;;;6108563;23;20011;-82
2021/09/16 08:30:28;;;;;;;1.95;0.40;;;16.90;99.90;;;;;;6084626;23;20010;-82
2021/09/16 08:32:54;;;;;;;2.97;0.57;;;17.00;99.90;;;;;;6108737;23;20011;-82
2021/09/16 08:35:20;;;;;;;5.28;0.50;;;17.20;99.90;;;;;;6108326;23;20007;-81
2021/09/16 08:37:46;;;;;;;3.03;0.43;;;17.30;99.90;;;;;;6084381;23;20462;-82
2021/09/16 08:40:13;;;;;;;2.08;0.50;;;17.30;99.90;;;;;;6084214;23;20320;-81
2021/09/16 08:42:41;;;;;;;3.45;0.50;;;17.40;99.90;;;;;;6107985;23;20045;-81
2021/09/16 08:45:14;;;;;;;3.67;0.55;;;17.00;99.90;;;;;;6127115;23;20437;-82
2021/09/16 08:47:44;;;;;;;1.95;0.40;;;17.00;99.90;;;;;;6142702;23;20002;-81
2021/09/16 08:50:10;;;;;;;3.17;0.30;;;17.00;99.90;;;;;;6143005;23;20009;-81
2021/09/16 08:52:40;;;;;;;5.40;0.50;;;17.40;99.90;;;;;;6142820;23;20028;-81
2021/09/16 08:55:10;;;;;;;1.63;0.20;;;17.50;99.90;;;;;;6142847;23;20025;-81
2021/09/16 08:57:38;;;;;;;4.72;0.35;;;17.40;99.90;;;;;;6142738;23;20013;-82
2021/09/16 09:00:08;;;;;;;2.30;0.30;;;17.60;99.90;;;;;;6118816;23;20238;-83
2021/09/16 09:02:34;;;;;;;1.65;0.30;;;17.60;99.90;;;;;;6114180;23;20017;-81
2021/09/16 09:05:02;;;;;;;2.70;0.20;;;17.60;99.90;;;;;;6142996;23;20488;-81
2021/09/16 09:07:40;;;;;;;3.85;0.40;;;17.30;99.90;;;;;;6143011;23;20010;-81
2021/09/16 09:10:08;;;;;;;2.05;0.20;;;17.50;99.90;;;;;;6118594;23;20426;-82
2021/09/16 09:12:36;;;;;;;2.60;0.25;;;17.40;99.90;;;;;;6117973;23;20016;-82
2021/09/16 09:15:07;;;;;;;2.90;0.20;;;17.70;99.90;;;;;;6142414;23;20029;-81
2021/09/16 09:17:34;;;;;;;1.27;0.20;;;17.90;99.90;;;;;;6142590;23;20016;-81
2021/09/16 09:20:08;;;;;;;3.08;0.28;;;17.70;99.90;;;;;;6142481;23;20040;-80
2021/09/16 09:22:37;;;;;;;1.05;0.20;;;17.90;99.90;;;;;;6142238;23;20160;-82
2021/09/16 09:25:06;;;;;;;2.25;0.40;;;17.80;99.90;;;;;;6118033;23;20037;-82
2021/09/16 09:27:45;;;;;;;4.15;0.28;;;17.80;99.90;;;;;;6168550;23;20346;-82
2021/09/16 09:30:14;;;;;;;2.33;0.20;;;17.60;99.90;;;;;;6118010;23;20010;-81
2021/09/16 09:32:54;;;;;;;1.75;0.20;;;17.60;99.90;;;;;;6142499;23;20366;-82
2021/09/16 09:35:27;;;;;;;1.98;0.20;;;17.80;99.90;;;;;;6142241;23;20010;-81
2021/09/16 09:37:53;;;;;;;1.42;0.30;;;18.40;99.90;;;;;;6142491;23;20005;-81
2021/09/16 09:40:37;;;;;;;3.05;0.30;;;18.20;99.90;;;;;;6142591;23;20105;-82
2021/09/16 09:43:50;;;;;;;4.10;0.30;;;18.10;99.90;;;;;;6142246;23;20027;-81
2021/09/16 09:46:17;;;;;;;3.80;0.30;;;18.20;99.90;;;;;;6139816;23;20029;-81
2021/09/16 09:48:58;;;;;;;2.88;0.50;;;18.40;99.90;;;;;;6194426;23;20013;-81
2021/09/16 09:51:40;;;;;;;2.83;0.30;;;18.40;99.90;;;;;;6147253;23;20013;-80
2021/09/16 09:54:30;;;;;;;2.47;0.30;;;17.90;99.90;;;;;;6171829;23;20032;-81
2021/09/16 09:57:01;;;;;;;2.40;0.40;;;17.70;99.90;;;;;;6166828;23;20009;-81
2021/09/16 09:59:29;;;;;;;3.78;0.30;;;17.80;99.90;;;;;;6161114;23;20092;-81
2021/09/16 10:02:04;;;;;;;2.83;0.30;;;17.80;99.90;;;;;;6160852;23;20020;-81
2021/09/16 10:04:31;;;;;;;2.70;0.40;;;17.80;99.90;;;;;;6173490;23;20013;-80
2021/09/16 10:06:58;;;;;;;1.17;0.30;;;18.10;99.90;;;;;;6173372;23;20025;-80
2021/09/16 10:09:24;;;;;;;0.77;0.30;;;18.80;99.90;;;;;;6149294;23;20052;-80
2021/09/16 10:11:52;;;;;;;1.27;0.30;;;18.60;99.90;;;;;;6173463;23;20057;-81
2021/09/16 10:14:19;;;;;;;1.77;0.40;;;18.20;99.90;;;;;;6173244;23;20015;-80
2021/09/16 10:16:45;;;;;;;2.80;0.32;;;18.20;99.90;;;;;;6173524;23;20031;-81
2021/09/16 10:19:13;;;;;;;3.88;0.40;;;18.80;99.90;;;;;;6173907;23;20035;-81
2021/09/16 10:21:40;;;;;;;1.30;0.30;;;19.00;99.90;;;;;;6173754;23;20001;-81
2021/09/16 10:24:07;;;;;;;2.35;0.32;;;18.40;99.90;;;;;;6173484;23;20016;-81
2021/09/16 10:26:41;;;;;;;3.15;0.55;;;18.30;99.90;;;;;;6173160;23;20160;-81
2021/09/16 10:29:27;;;;;;;2.67;0.28;;;18.30;99.90;;;;;;6198036;23;20036;-80
2021/09/16 10:32:13;;;;;;;2.00;0.20;;;18.80;99.90;;;;;;6162979;23;20011;-80
2021/09/16 10:34:44;;;;;;;2.42;0.30;;;18.30;99.90;;;;;;6173161;23;20085;-81
2021/09/16 10:37:15;;;;;;;4.53;0.30;;;18.20;99.90;;;;;;6173188;23;20005;-81
2021/09/16 10:39:45;;;;;;;3.78;0.20;;;18.40;99.90;;;;;;6148228;23;20445;-80
2021/09/16 10:42:11;;;;;;;3.10;0.20;;;18.60;99.90;;;;;;6173080;23;20033;-80
2021/09/16 10:44:38;;;;;;;2.85;0.20;;;18.80;99.90;;;;;;6144043;23;20009;-81
2021/09/16 10:47:21;;;;;;;5.32;0.30;;;19.00;99.90;;;;;;6143479;23;20065;-81
2021/09/16 10:49:49;;;;;;;2.35;0.28;;;19.20;99.90;;;;;;6143536;23;20037;-81
2021/09/16 10:52:14;;;;;;;2.15;0.20;;;19.50;99.90;;;;;;6118976;23;20020;-81
2021/09/16 10:54:49;;;;;;;3.50;0.30;;;19.20;99.90;;;;;;6143478;23;20006;-81
2021/09/16 10:57:37;;;;;;;2.40;0.25;;;19.30;99.90;;;;;;6143461;23;20017;-81
2021/09/16 11:00:04;;;;;;;2.97;0.30;;;19.80;99.90;;;;;;6143257;23;20342;-81
2021/09/16 11:02:39;;;;;;;4.43;0.30;;;19.80;99.90;;;;;;6143417;23;20134;-81
2021/09/16 11:05:12;;;;;;;2.25;0.47;;;20.10;99.90;;;;;;6143099;23;20033;-81
2021/09/16 11:07:38;;;;;;;1.38;0.20;;;19.70;99.90;;;;;;6143590;23;20020;-81
2021/09/16 11:10:13;;;;;;;1.67;0.22;;;19.50;99.90;;;;;;6141413;23;20006;-82
2021/09/16 11:12:40;;;;;;;1.27;0.30;;;19.60;99.90;;;;;;6143035;23;20009;-81
2021/09/16 11:15:06;;;;;;;1.92;0.30;;;19.90;99.90;;;;;;6142454;23;20010;-82
2021/09/16 11:17:32;;;;;;;3.05;0.30;;;19.70;99.90;;;;;;6143294;23;20060;-79
2021/09/16 11:19:58;;;;;;;2.35;0.25;;;20.00;99.90;;;;;;6143174;23;20002;-82
2021/09/16 11:22:24;;;;;;;1.27;0.20;;;19.50;99.90;;;;;;6118743;23;20065;-81
2021/09/16 11:24:53;;;;;;;2.92;0.20;;;19.80;99.90;;;;;;6142914;23;20005;-82
2021/09/16 11:27:39;;;;;;;1.98;0.30;;;20.00;99.90;;;;;;6118376;23;20375;-81
2021/09/16 11:30:13;;;;;;;2.75;0.20;;;20.10;99.90;;;;;;6142764;23;20028;-82
2021/09/16 11:32:40;;;;;;;2.42;0.30;;;20.10;99.90;;;;;;6143175;23;20013;-82
2021/09/16 11:35:10;;;;;;;2.85;0.40;;;20.40;99.90;;;;;;6142833;23;20072;-82
2021/09/16 11:37:40;;;;;;;;;;;20.40;99.90;;;;;;6143535;23;20005;-82
2021/09/16 11:40:10;;;;;;;2.10;0.30;;;20.00;99.90;;;;;;6167358;23;19905;-82
2021/09/16 11:42:39;;;;;;;2.10;0.30;;;19.70;99.90;;;;;;6142787;23;20009;-82
2021/09/16 11:45:05;;;;;;;2.20;0.30;;;19.60;99.90;;;;;;6137450;23;20029;-82
2021/09/16 11:47:42;;;;;;;4.10;0.30;;;19.80;99.90;;;;;;6138082;23;20024;-81
2021/09/16 11:50:20;;;;;;;3.00;0.30;;;19.80;99.90;;;;;;6167691;23;20020;-81
2021/09/16 11:52:45;;;;;;;2.45;0.40;;;19.40;99.90;;;;;;6142797;23;20010;-80
2021/09/16 11:55:14;;;;;;;2.95;0.40;;;19.00;99.90;;;;;;6167623;23;20016;-82
2021/09/16 11:57:55;;;;;;;1.42;0.30;;;18.90;99.90;;;;;;6142926;23;20009;-81
2021/09/16 12:00:25;;;;;;;2.30;0.30;;;19.10;99.90;;;;;;6167541;23;20012;-81
2021/09/16 12:02:51;;;;;;;1.10;0.30;;;19.60;99.90;;;;;;6118382;23;20014;-81
2021/09/16 12:05:46;;;;;;;1.05;0.22;;;19.50;99.90;;;;;;6142602;23;20033;-81
2021/09/16 12:08:18;;;;;;;2.88;0.30;;;19.30;99.90;;;;;;6142637;23;20069;-81
2021/09/16 12:11:36;;;;;;;1.75;0.30;;;19.50;99.90;;;;;;6142616;23;20014;-81
2021/09/16 12:14:02;;;;;;;1.95;0.30;;;19.70;99.90;;;;;;6126254;23;20005;-81
2021/09/16 12:16:31;;;;;;;2.05;0.30;;;19.50;99.90;;;;;;6142337;23;20040;-81
2021/09/16 12:19:07;;;;;;;1.40;0.30;;;19.30;99.90;;;;;;6143049;23;20001;-81
2021/09/16 12:21:38;;;;;;;3.85;0.30;;;19.20;99.90;;;;;;6167335;23;20021;-81
2021/09/16 12:24:12;;;;;;;1.77;0.63;;;19.30;99.90;;;;;;6142133;23;20066;-81
2021/09/16 12:26:39;;;;;;;1.67;0.20;;;19.10;99.90;;;;;;6168687;23;20005;-81
2021/09/16 12:29:05;;;;;;;1.83;0.50;;;19.00;99.90;;;;;;6142587;23;20013;-81
2021/09/16 12:31:33;;;;;;;1.33;0.22;;;19.00;99.90;;;;;;6117990;23;20040;-81
2021/09/16 12:34:16;;;;;;;1.73;0.30;;;19.50;99.90;;;;;;6118178;23;20094;-81
2021/09/16 12:36:59;;;;;;;1.60;0.20;;;19.70;99.90;;;;;;6142322;23;20006;-81
2021/09/16 12:39:27;;;;;;;2.35;0.30;;;19.60;99.90;;;;;;6142482;23;20017;-80
2021/09/16 12:42:04;;;;;;;2.58;0.20;;;19.50;99.90;;;;;;6142739;23;20063;-81
2021/09/16 12:44:35;;;;;;;0.90;0.10;;;19.50;99.90;;;;;;6142080;23;20021;-81
2021/09/16 12:47:14;;;;;;;0.63;0.20;;;19.50;99.90;;;;;;6142263;23;20325;-82
2021/09/16 12:49:44;;;;;;;1.20;0.20;;;19.20;99.90;;;;;;6118072;23;20011;-81
2021/09/16 12:52:29;;;;;;;1.83;0.30;;;19.00;99.90;;;;;;6142405;23;20009;-81